Time;durP1;ratioP1;P1;durP2;ratioP2;P2;SDS_P1;SDS_P2;PMS_P1;PMS_P2;Temp;Humidity;BMP_temperature;BMP_pressure;BME280_temperature;BME280_humidity;BME280_pressure;Samples;Min_cycle;Max_cycle;Signal;HPM_P1;HPM_P2
2022/03/21 02:37:58;;;;;;;32.85;13.40;;;;;;;-0.44;100.00;96077.03;6011588;22;20031;-89
2022/03/21 02:40:24;;;;;;;31.33;15.38;;;;;;;-0.54;100.00;96082.31;5000038;28;20033;-89
2022/03/21 02:42:50;;;;;;;32.53;16.38;;;;;;;-0.47;100.00;96079.94;4984235;28;20111;-89
2022/03/21 02:45:16;;;;;;;39.55;15.88;;;;;;;-0.62;100.00;96077.13;5000173;28;20057;-89
2022/03/21 02:47:42;;;;;;;33.70;16.73;;;;;;;-0.74;100.00;96084.31;4983997;28;20026;-89
2022/03/21 02:50:11;;;;;;;38.25;16.48;;;;;;;-0.77;100.00;96080.28;4988044;28;20101;-89
2022/03/21 02:52:39;;;;;;;35.03;17.02;;;;;;;-1.11;100.00;96083.63;4984118;28;20132;-89
2022/03/21 02:55:05;;;;;;;30.30;15.75;;;;;;;-1.06;100.00;96081.41;4980934;28;20038;-89
2022/03/21 02:57:32;;;;;;;35.03;16.20;;;;;;;-1.09;100.00;96083.47;4974084;28;20053;-89
2022/03/21 02:59:58;;;;;;;31.00;15.73;;;;;;;-1.03;100.00;96083.66;4980458;28;20034;-89
2022/03/21 03:02:24;;;;;;;33.75;16.83;;;;;;;-1.03;100.00;96082.88;4980573;28;20037;-89
2022/03/21 03:04:49;;;;;;;30.17;14.55;;;;;;;-1.11;100.00;96078.50;4964539;28;20088;-90
2022/03/21 03:07:15;;;;;;;33.17;16.67;;;;;;;-1.06;100.00;96078.81;4980139;28;20102;-89
2022/03/21 03:09:40;;;;;;;28.17;14.25;;;;;;;-1.07;100.00;96077.22;4964469;28;20379;-88
2022/03/21 03:12:06;;;;;;;29.33;14.65;;;;;;;-0.98;100.00;96079.84;4980307;28;20422;-89
2022/03/21 03:14:35;;;;;;;27.33;13.60;;;;;;;-0.94;100.00;96079.38;4980747;28;20038;-89
2022/03/21 03:17:01;;;;;;;26.10;13.68;;;;;;;-0.89;100.00;96073.78;4979965;28;20423;-90
2022/03/21 03:19:27;;;;;;;30.23;14.48;;;;;;;-0.98;100.00;96090.16;4980006;28;20030;-89
2022/03/21 03:21:53;;;;;;;26.85;13.07;;;;;;;-0.97;100.00;96089.19;4972317;28;20057;-89
2022/03/21 03:24:20;;;;;;;28.10;12.95;;;;;;;-0.99;100.00;96091.91;4997523;28;20084;-89
2022/03/21 03:26:45;;;;;;;23.63;11.55;;;;;;;-0.98;100.00;96087.56;4980035;28;20367;-89
2022/03/21 03:29:10;;;;;;;28.00;12.68;;;;;;;-1.01;100.00;96086.09;4964281;28;20089;-89
2022/03/21 03:31:36;;;;;;;23.95;12.23;;;;;;;-0.89;100.00;96091.78;4979987;28;20041;-89
2022/03/21 03:34:02;;;;;;;26.98;12.63;;;;;;;-0.89;100.00;96096.94;4981300;28;20080;-89
2022/03/21 03:36:28;;;;;;;27.23;12.23;;;;;;;-0.89;100.00;96087.47;4968121;28;20034;-89
2022/03/21 03:38:53;;;;;;;24.60;11.93;;;;;;;-0.78;100.00;96086.38;4968165;28;20038;-89
2022/03/21 03:41:19;;;;;;;27.17;12.15;;;;;;;-0.77;100.00;96087.19;4983657;28;20092;-89
2022/03/21 03:43:45;;;;;;;23.63;11.20;;;;;;;-0.79;100.00;96086.53;4968050;28;20431;-89
2022/03/21 03:46:11;;;;;;;22.45;10.77;;;;;;;-0.62;100.00;96087.41;4983947;28;20033;-89
2022/03/21 03:48:36;;;;;;;24.38;11.63;;;;;;;-0.61;100.00;96089.03;4984048;28;20030;-89
2022/03/21 03:51:03;;;;;;;22.45;11.70;;;;;;;-0.66;100.00;96086.91;5000856;28;20448;-89
2022/03/21 03:53:29;;;;;;;27.02;12.70;;;;;;;-0.65;100.00;96090.31;4984042;28;20026;-89
2022/03/21 03:55:55;;;;;;;25.15;12.55;;;;;;;-0.56;100.00;96089.41;4983480;28;20116;-89
2022/03/21 03:58:20;;;;;;;24.52;11.77;;;;;;;-0.69;100.00;96082.06;5001339;28;20398;-89
2022/03/21 04:00:46;;;;;;;27.80;13.23;;;;;;;-0.75;100.00;96090.44;5000834;28;20038;-89
2022/03/21 04:05:56;;;;;;;22.25;12.00;;;;;;;-0.90;100.00;96083.28;4995229;28;20477;-89
2022/03/21 04:08:49;;;;;;;30.20;12.95;;;;;;;-0.90;100.00;96078.13;4986799;28;20034;-89
2022/03/21 04:11:15;;;;;;;26.65;12.60;;;;;;;-0.94;100.00;96083.72;5002668;28;20033;-89
2022/03/21 04:13:41;;;;;;;26.63;12.13;;;;;;;-0.92;100.00;96084.38;4986922;28;20033;-89
2022/03/21 04:16:07;;;;;;;28.48;13.05;;;;;;;-0.91;100.00;96086.81;5002867;28;20460;-89
2022/03/21 04:18:33;;;;;;;27.98;12.38;;;;;;;-0.96;100.00;96085.66;5003080;28;20423;-89
2022/03/21 04:20:58;;;;;;;31.83;13.07;;;;;;;-0.98;100.00;96082.44;4986058;28;20041;-89
2022/03/21 04:23:24;;;;;;;26.00;12.63;;;;;;;-1.08;100.00;96080.75;5002768;28;20101;-89
2022/03/21 04:25:49;;;;;;;30.00;12.88;;;;;;;-1.01;100.00;96086.88;5002779;28;20026;-89
2022/03/21 04:28:15;;;;;;;27.33;13.25;;;;;;;-0.98;100.00;96090.94;4986401;28;20046;-89
2022/03/21 04:30:41;;;;;;;25.33;12.77;;;;;;;-1.05;100.00;96090.72;4986506;28;20038;-89
2022/03/21 04:33:12;;;;;;;25.00;11.75;;;;;;;-1.10;100.00;96087.81;4986923;28;20079;-89
2022/03/21 04:35:38;;;;;;;29.08;14.20;;;;;;;-1.14;100.00;96092.44;4987221;28;20062;-89
2022/03/21 04:38:05;;;;;;;29.25;13.07;;;;;;;-1.28;100.00;96098.13;4986487;28;20450;-89
2022/03/21 04:40:30;;;;;;;28.40;13.35;;;;;;;-1.33;100.00;96096.00;4986089;28;20037;-88
2022/03/21 04:42:56;;;;;;;26.15;12.32;;;;;;;-1.26;100.00;96095.44;5002416;28;20338;-88
2022/03/21 04:45:21;;;;;;;28.95;13.50;;;;;;;-1.38;100.00;96108.50;4986296;28;20329;-89
2022/03/21 04:47:47;;;;;;;24.48;12.48;;;;;;;-1.33;100.00;96101.16;5002653;28;20112;-88
2022/03/21 04:50:13;;;;;;;25.27;12.95;;;;;;;-1.39;100.00;96109.47;5002364;28;20080;-89
2022/03/21 04:52:38;;;;;;;26.70;13.70;;;;;;;-1.46;100.00;96098.97;5002502;28;20041;-88
2022/03/21 04:55:07;;;;;;;28.55;13.65;;;;;;;-1.38;100.00;96107.69;4986291;28;20084;-88
2022/03/21 04:57:34;;;;;;;27.08;13.93;;;;;;;-1.33;100.00;96113.22;5002559;28;20026;-89
2022/03/21 04:59:59;;;;;;;24.30;12.88;;;;;;;-1.18;100.00;96116.03;4985989;28;20056;-89
2022/03/21 05:02:25;;;;;;;30.65;13.43;;;;;;;-1.42;100.00;96102.84;5000536;28;20033;-89
2022/03/21 05:04:51;;;;;;;26.75;14.05;;;;;;;-1.59;100.00;96111.41;4985913;28;20032;-89
2022/03/21 05:07:17;;;;;;;27.67;13.02;;;;;;;-1.61;100.00;96110.75;5002301;28;20361;-89
2022/03/21 05:09:43;;;;;;;33.53;13.93;;;;;;;-1.58;100.00;96107.88;4985332;28;20343;-89
2022/03/21 05:12:10;;;;;;;29.27;13.73;;;;;;;-1.48;100.00;96113.75;5019361;28;20316;-89
2022/03/21 05:14:36;;;;;;;29.02;14.00;;;;;;;-1.58;100.00;96118.97;5001743;28;20194;-90
2022/03/21 05:17:02;;;;;;;29.27;14.45;;;;;;;-1.65;100.00;96115.34;4985774;28;20037;-88
2022/03/21 05:19:35;;;;;;;29.23;14.93;;;;;;;-1.71;100.00;96118.53;5002204;28;20054;-88
2022/03/21 05:22:07;;;;;;;34.10;15.43;;;;;;;-1.81;100.00;96115.22;5001900;28;20033;-88
2022/03/21 05:35:52;;;;;;;35.40;13.23;;;;;;;-1.31;100.00;96132.66;5004232;28;20040;-88
2022/03/21 05:35:55;;;;;;;28.27;13.77;;;;;;;-1.34;100.00;96127.81;5003899;28;20460;-88
2022/03/21 05:38:31;;;;;;;31.98;13.65;;;;;;;-1.20;100.00;96129.06;5004202;28;20438;-89
2022/03/21 05:41:00;;;;;;;29.50;13.05;;;;;;;-1.16;100.00;96132.13;4984871;28;20033;-88
2022/03/21 05:43:28;;;;;;;32.17;14.15;;;;;;;-1.13;100.00;96126.72;5001155;28;20037;-88
2022/03/21 05:45:55;;;;;;;43.90;13.48;;;;;;;-0.97;100.00;96131.16;4982007;28;20026;-88
2022/03/21 05:51:05;;;;;;;28.67;13.68;;;;;;;-0.79;100.00;96138.00;4983915;28;20355;-88
2022/03/21 05:53:31;;;;;;;28.70;13.48;;;;;;;-0.54;100.00;96130.41;4998879;28;20034;-88
2022/03/21 05:56:03;;;;;;;29.65;13.02;;;;;;;-0.49;100.00;96139.31;4981314;28;20034;-89
2022/03/21 05:58:29;;;;;;;36.22;14.60;;;;;;;-0.76;100.00;96130.00;4982145;28;20085;-88
2022/03/21 06:00:55;;;;;;;35.15;13.80;;;;;;;-0.76;100.00;96132.56;4981436;28;20034;-89
2022/03/21 06:03:22;;;;;;;26.98;14.05;;;;;;;-0.54;100.00;96138.16;4965282;28;20399;-89
2022/03/21 06:05:47;;;;;;;29.17;14.25;;;;;;;-0.61;100.00;96137.94;4981351;28;20023;-89
2022/03/21 06:08:13;;;;;;;30.25;14.18;;;;;;;-0.55;100.00;96142.50;4981321;28;20424;-89
2022/03/21 06:10:39;;;;;;;27.42;14.30;;;;;;;-0.45;100.00;96147.53;4981276;28;20088;-89
2022/03/21 06:13:08;;;;;;;28.17;13.75;;;;;;;-0.35;100.00;96137.94;4998652;28;20149;-88
2022/03/21 06:15:37;;;;;;;28.90;14.07;;;;;;;-0.18;100.00;96143.94;4997565;28;20037;-89
2022/03/21 06:18:10;;;;;;;25.73;12.40;;;;;;;-0.10;100.00;96139.78;4981498;28;20416;-89
2022/03/21 06:20:36;;;;;;;26.75;13.15;;;;;;;0.03;100.00;96142.72;4980748;28;20129;-88
2022/03/21 06:23:02;;;;;;;26.58;13.35;;;;;;;0.12;100.00;96151.28;4981168;28;20036;-88
2022/03/21 06:25:27;;;;;;;31.92;13.32;;;;;;;0.40;100.00;96158.78;4981077;28;20034;-89
2022/03/21 06:27:53;;;;;;;28.63;12.85;;;;;;;0.47;100.00;96151.22;4980964;28;20026;-88
2022/03/21 06:30:18;;;;;;;27.60;12.48;;;;;;;0.59;100.00;96155.09;4980479;28;20030;-87
2022/03/21 06:32:44;;;;;;;27.20;12.45;;;;;;;0.83;100.00;96148.31;4998494;28;20038;-89
2022/03/21 06:35:09;;;;;;;24.35;11.98;;;;;;;0.98;100.00;96157.03;4981044;28;20034;-89
2022/03/21 06:37:36;;;;;;;21.52;11.73;;;;;;;0.99;100.00;96152.69;4980836;28;20041;-89
2022/03/21 06:40:01;;;;;;;24.60;12.57;;;;;;;1.06;100.00;96161.38;4964687;28;20041;-89
2022/03/21 06:42:27;;;;;;;25.30;12.55;;;;;;;0.98;100.00;96161.38;4981228;28;20026;-89
2022/03/21 06:44:53;;;;;;;24.27;12.13;;;;;;;0.86;100.00;96165.25;4965093;28;20084;-89
2022/03/21 06:47:19;;;;;;;24.75;11.05;;;;;;;1.20;100.00;96170.25;4965091;28;20033;-90
2022/03/21 06:49:45;;;;;;;21.50;11.90;;;;;;;1.45;100.00;96165.06;4980077;28;20030;-89
2022/03/21 06:52:11;;;;;;;26.02;11.70;;;;;;;1.54;100.00;96171.00;4980751;28;20033;-90
2022/03/21 06:54:37;;;;;;;25.20;12.20;;;;;;;1.63;100.00;96169.97;4994494;28;20435;-89
2022/03/21 06:57:03;;;;;;;24.83;12.30;;;;;;;1.48;100.00;96172.47;4983989;28;20037;-89
2022/03/21 06:59:29;;;;;;;33.47;12.68;;;;;;;1.34;100.00;96176.50;4983903;28;20032;-89
2022/03/21 07:01:58;;;;;;;25.75;12.68;;;;;;;1.41;100.00;96172.31;4983120;28;20513;-89
2022/03/21 07:04:25;;;;;;;24.58;12.70;;;;;;;1.67;100.00;96176.47;4983879;28;20025;-89
2022/03/21 07:06:51;;;;;;;24.45;13.02;;;;;;;1.62;100.00;96170.97;4983748;28;20034;-89
2022/03/21 07:09:16;;;;;;;23.85;12.23;;;;;;;1.67;100.00;96179.03;4999289;28;20051;-89
2022/03/21 07:11:42;;;;;;;26.45;12.68;;;;;;;1.79;100.00;96182.06;4999647;28;20067;-89
2022/03/21 07:14:07;;;;;;;24.60;12.55;;;;;;;1.93;100.00;96177.16;4983808;28;20026;-88
2022/03/21 07:16:33;;;;;;;25.30;12.15;;;;;;;2.26;100.00;96184.78;4983685;28;20049;-89
2022/03/21 07:18:58;;;;;;;23.83;12.10;;;;;;;2.32;100.00;96184.13;5017157;28;20342;-88
2022/03/21 07:21:24;;;;;;;26.45;12.23;;;;;;;2.45;100.00;96188.72;4983118;28;20026;-89
2022/03/21 07:23:49;;;;;;;22.58;11.80;;;;;;;2.39;100.00;96189.41;4999660;28;20315;-89
2022/03/21 07:26:15;;;;;;;22.35;11.75;;;;;;;2.46;100.00;96187.75;4983605;28;20342;-89
2022/03/21 07:28:41;;;;;;;22.17;11.68;;;;;;;2.58;100.00;96193.31;4983641;28;20037;-89
2022/03/21 07:31:10;;;;;;;28.48;12.48;;;;;;;2.65;100.00;96191.69;4999118;28;20030;-89
2022/03/21 07:33:40;;;;;;;28.50;12.35;;;;;;;2.45;100.00;96191.31;5017341;28;20029;-89
2022/03/21 07:36:07;;;;;;;23.50;12.80;;;;;;;2.53;100.00;96190.44;4983650;28;20042;-89
2022/03/21 07:38:35;;;;;;;20.77;11.15;;;;;;;2.62;100.00;96197.19;4999810;28;20080;-89
2022/03/21 07:41:01;;;;;;;27.95;12.77;;;;;;;2.61;100.00;96193.00;4982894;28;20061;-89
2022/03/21 07:43:26;;;;;;;23.35;11.98;;;;;;;2.75;100.00;96190.66;4983382;28;20431;-88
2022/03/21 07:48:36;;;;;;;25.00;11.82;;;;;;;2.87;100.00;96198.81;5017003;28;20041;-88
2022/03/21 07:51:04;;;;;;;18.50;10.23;;;;;;;3.02;100.00;96191.91;4983018;28;20435;-88
2022/03/21 07:53:31;;;;;;;19.20;10.35;;;;;;;3.16;100.00;96197.31;4999738;28;20083;-89
2022/03/21 07:56:00;;;;;;;22.98;11.40;;;;;;;3.28;100.00;96200.25;4983262;28;20038;-89
2022/03/21 07:58:29;;;;;;;22.20;10.57;;;;;;;3.05;100.00;96198.53;4983402;28;20109;-88
2022/03/21 08:00:56;;;;;;;21.02;10.20;;;;;;;3.36;100.00;96202.78;4982578;28;20037;-89
2022/03/21 08:03:22;;;;;;;20.42;9.43;;;;;;;3.36;100.00;96202.78;4983376;28;20065;-88
2022/03/21 08:05:47;;;;;;;22.73;9.85;;;;;;;3.63;100.00;96206.56;5016739;28;20104;-88
2022/03/21 08:08:14;;;;;;;19.08;9.18;;;;;;;3.74;100.00;96205.34;4999289;28;20037;-88
2022/03/21 08:10:39;;;;;;;18.80;9.77;;;;;;;3.76;100.00;96208.56;4998990;28;20029;-88
2022/03/21 08:13:04;;;;;;;18.92;8.95;;;;;;;3.88;96.03;96211.50;4999481;28;20335;-89
2022/03/21 08:15:30;;;;;;;17.00;9.18;;;;;;;3.92;94.82;96210.16;4983170;28;20124;-89
2022/03/21 08:17:57;;;;;;;20.33;7.68;;;;;;;4.07;86.87;96212.75;5000359;28;20113;-88
2022/03/21 08:20:25;;;;;;;19.52;9.73;;;;;;;4.14;88.06;96210.25;4998567;28;20088;-89
2022/03/21 08:22:52;;;;;;;16.40;8.35;;;;;;;4.34;82.75;96207.09;4983307;28;20328;-89
2022/03/21 08:25:20;;;;;;;15.98;7.72;;;;;;;4.49;74.54;96207.84;4983700;28;20435;-89
2022/03/21 08:27:46;;;;;;;15.27;7.68;;;;;;;4.77;71.93;96212.34;4967212;28;20034;-88
2022/03/21 08:30:13;;;;;;;12.88;7.00;;;;;;;4.74;64.95;96217.13;4982740;28;20034;-89
2022/03/21 08:32:39;;;;;;;15.27;6.82;;;;;;;4.70;67.09;96210.66;5000509;28;20454;-89
2022/03/21 08:35:05;;;;;;;12.90;6.93;;;;;;;4.76;64.00;96208.13;4983006;28;20035;-89
2022/03/21 08:37:31;;;;;;;15.77;7.00;;;;;;;4.94;65.75;96219.88;4983092;28;20026;-88
2022/03/21 08:39:56;;;;;;;18.35;8.10;;;;;;;5.16;61.62;96212.09;4982688;28;20039;-89
2022/03/21 08:42:21;;;;;;;12.70;6.97;;;;;;;4.91;60.89;96215.06;4983045;28;20038;-89
2022/03/21 08:44:47;;;;;;;14.45;7.15;;;;;;;5.16;62.75;96210.28;5000024;28;20033;-89
2022/03/21 08:47:12;;;;;;;22.70;8.18;;;;;;;5.33;59.65;96210.06;4983040;28;20030;-88
2022/03/21 08:49:38;;;;;;;15.45;7.65;;;;;;;5.05;58.48;96206.41;4966687;28;20116;-88
2022/03/21 08:52:06;;;;;;;17.75;7.50;;;;;;;5.13;61.23;96218.47;4982719;28;20038;-88
2022/03/21 08:54:32;;;;;;;15.98;8.00;;;;;;;5.18;56.87;96203.13;4982829;28;20030;-88
2022/03/21 08:56:57;;;;;;;17.77;7.80;;;;;;;5.37;55.70;96206.88;4983207;28;20047;-88
2022/03/21 08:59:23;;;;;;;18.38;7.35;;;;;;;5.34;56.72;96204.66;4982827;28;20030;-88
2022/03/21 09:01:48;;;;;;;15.75;7.32;;;;;;;5.22;55.06;96200.94;4982706;28;20030;-88
2022/03/21 09:04:14;;;;;;;14.05;7.13;;;;;;;5.47;53.75;96203.16;4982607;28;20030;-89
2022/03/21 09:06:40;;;;;;;13.00;6.80;;;;;;;5.65;49.00;96203.47;4982735;28;20061;-89
2022/03/21 09:09:05;;;;;;;15.07;6.68;;;;;;;5.84;47.27;96202.97;4982627;28;20037;-88
2022/03/21 09:11:31;;;;;;;16.65;6.50;;;;;;;5.82;46.70;96210.19;4966122;28;20048;-88
2022/03/21 09:13:56;;;;;;;10.35;6.07;;;;;;;6.13;47.12;96207.19;4982447;28;20054;-88
2022/03/21 09:16:22;;;;;;;10.63;6.20;;;;;;;6.27;49.58;96207.22;4982443;28;20038;-88
2022/03/21 09:18:47;;;;;;;12.98;6.32;;;;;;;6.65;51.79;96214.56;4982615;28;20518;-88
2022/03/21 09:21:13;;;;;;;13.35;6.15;;;;;;;6.52;43.03;96212.72;4966034;28;20089;-88
2022/03/21 09:23:39;;;;;;;13.90;6.80;;;;;;;6.69;42.65;96205.38;4982576;28;20030;-89
2022/03/21 09:26:08;;;;;;;14.63;6.85;;;;;;;6.57;43.20;96202.53;4982726;28;20032;-89
2022/03/21 09:28:34;;;;;;;15.57;6.40;;;;;;;6.27;42.52;96202.03;4999531;28;20351;-88
2022/03/21 09:30:59;;;;;;;15.32;6.30;;;;;;;6.64;47.56;96195.53;4965578;28;20072;-88
2022/03/21 09:33:26;;;;;;;13.10;6.90;;;;;;;7.12;42.31;96209.44;4966012;28;20100;-89
2022/03/21 09:35:51;;;;;;;12.93;6.82;;;;;;;7.04;40.44;96201.81;4982069;28;20037;-89
2022/03/21 09:38:17;;;;;;;12.95;6.35;;;;;;;6.38;40.05;96190.25;4999270;28;20031;-89
2022/03/21 09:40:44;;;;;;;11.90;5.63;;;;;;;7.01;41.38;96191.78;4981869;28;20064;-89
2022/03/21 09:43:10;;;;;;;10.90;5.82;;;;;;;7.00;37.58;96191.00;4981818;28;20037;-88
2022/03/21 09:45:36;;;;;;;15.88;5.68;;;;;;;7.14;36.92;96197.00;4965852;28;20331;-88
2022/03/21 09:48:08;;;;;;;12.15;6.07;;;;;;;6.85;39.30;96192.97;4982087;28;20432;-88
2022/03/21 09:50:36;;;;;;;13.88;6.97;;;;;;;6.93;36.12;96188.38;4982753;28;20026;-88
2022/03/21 09:53:05;;;;;;;13.50;6.65;;;;;;;7.34;40.82;96188.41;5001095;28;20335;-88
2022/03/21 09:55:31;;;;;;;11.68;6.30;;;;;;;7.76;40.50;96188.13;5001374;28;20036;-88
2022/03/21 09:57:57;;;;;;;14.60;6.85;;;;;;;7.92;40.17;96190.31;5001232;28;20034;-88
2022/03/21 10:00:22;;;;;;;13.80;6.57;;;;;;;7.66;40.94;96183.34;5000594;28;20025;-87
2022/03/21 10:02:48;;;;;;;13.07;6.40;;;;;;;7.85;42.50;96192.16;4985013;28;20028;-88
2022/03/21 10:05:29;;;;;;;13.35;6.85;;;;;;;7.60;38.42;96190.16;4984791;28;20068;-88
2022/03/21 10:08:21;;;;;;;13.88;6.80;;;;;;;7.62;38.09;96188.16;5018274;28;20065;-89
2022/03/21 10:10:51;;;;;;;11.85;6.68;;;;;;;7.73;42.29;96178.13;4984800;28;20022;-88
2022/03/21 10:13:18;;;;;;;17.33;7.88;;;;;;;7.59;40.14;96183.34;5001161;28;20085;-88
2022/03/21 10:15:43;;;;;;;13.23;7.07;;;;;;;7.51;41.72;96173.13;5000632;28;20121;-87
2022/03/21 10:18:10;;;;;;;13.23;7.13;;;;;;;7.70;42.77;96183.75;5000969;28;20113;-88
2022/03/21 10:20:36;;;;;;;13.15;7.30;;;;;;;7.74;42.55;96184.94;5000292;28;20141;-88
2022/03/21 10:23:35;;;;;;;12.60;7.00;;;;;;;7.86;38.87;96172.06;5000609;28;20048;-88
2022/03/21 10:26:01;;;;;;;13.77;6.97;;;;;;;8.10;39.09;96172.38;4952616;28;20375;-87
2022/03/21 10:28:39;;;;;;;17.70;8.77;;;;;;;7.70;39.53;96168.88;5000527;28;20113;-88
2022/03/21 10:31:05;;;;;;;17.92;7.30;;;;;;;7.98;41.78;96180.06;5017566;28;20033;-87
2022/03/21 10:33:31;;;;;;;14.93;8.07;;;;;;;7.52;38.30;96179.16;4984466;28;20386;-87
2022/03/21 10:36:04;;;;;;;16.17;7.60;;;;;;;7.34;38.28;96178.75;5018142;28;20044;-87
2022/03/21 10:38:34;;;;;;;14.55;6.60;;;;;;;7.58;40.64;96170.50;4984402;28;20160;-88
2022/03/21 10:41:09;;;;;;;13.98;7.20;;;;;;;8.02;42.01;96168.19;4983658;28;20033;-88
2022/03/21 10:43:35;;;;;;;16.92;7.53;;;;;;;7.69;42.68;96171.72;4999865;28;20026;-89
2022/03/21 10:46:02;;;;;;;12.13;6.68;;;;;;;7.58;43.07;96166.09;4983944;28;20029;-88
2022/03/21 10:48:30;;;;;;;14.95;7.78;;;;;;;7.70;44.52;96163.66;5000359;28;20021;-88
2022/03/21 10:50:57;;;;;;;19.75;7.47;;;;;;;7.76;39.97;96160.25;4999619;28;20045;-88
2022/03/21 10:53:28;;;;;;;11.73;6.80;;;;;;;7.67;41.07;96173.69;5000124;28;20029;-88
2022/03/21 10:55:53;;;;;;;20.63;8.40;;;;;;;7.14;38.57;96165.72;4979731;28;20037;-88
2022/03/21 10:58:33;;;;;;;14.52;7.70;;;;;;;7.17;39.33;96165.34;4997883;28;20427;-87
2022/03/21 11:01:27;;;;;;;16.55;7.70;;;;;;;7.15;40.86;96156.91;4980307;28;20120;-88
2022/03/21 11:03:57;;;;;;;;;;;;;;;6.91;40.78;96163.50;4964962;28;20121;-88
2022/03/21 11:06:24;;;;;;;18.02;7.20;;;;;;;6.93;41.37;96146.69;4997842;28;19922;-88
2022/03/21 11:08:52;;;;;;;15.13;7.32;;;;;;;7.46;40.81;96160.72;5011049;28;20080;-88
2022/03/21 11:11:18;;;;;;;15.38;7.13;;;;;;;7.89;37.18;96162.00;4974293;28;20033;-88
2022/03/21 11:13:45;;;;;;;16.63;7.80;;;;;;;7.36;37.51;96148.06;4964122;28;20030;-88
2022/03/21 11:16:11;;;;;;;16.65;8.35;;;;;;;7.33;38.12;96147.69;4972267;28;20061;-89
2022/03/21 11:18:39;;;;;;;14.43;8.30;;;;;;;7.06;38.89;96145.09;4979823;28;20077;-88
2022/03/21 11:21:05;;;;;;;14.50;7.60;;;;;;;7.30;38.48;96143.66;4979935;28;20344;-88
2022/03/21 11:23:30;;;;;;;12.45;6.97;;;;;;;7.46;39.37;96145.06;4980234;28;20037;-88
2022/03/21 11:26:18;;;;;;;12.57;7.03;;;;;;;7.48;42.06;96137.84;4980560;28;20039;-88
2022/03/21 11:29:16;;;;;;;14.75;7.47;;;;;;;7.75;40.19;96137.78;4997297;28;20034;-88
2022/03/21 11:31:41;;;;;;;17.27;8.35;;;;;;;7.63;39.17;96142.03;4980046;28;20033;-88
2022/03/21 11:34:25;;;;;;;16.00;7.90;;;;;;;7.52;38.67;96134.81;4997212;28;20347;-88
2022/03/21 11:36:56;;;;;;;14.95;8.32;;;;;;;7.24;38.62;96138.47;4997412;28;20034;-89
2022/03/21 11:39:23;;;;;;;18.23;8.60;;;;;;;7.81;41.97;96137.94;4963486;28;20033;-88
2022/03/21 11:42:33;;;;;;;14.60;7.32;;;;;;;8.09;40.67;96129.03;4979886;28;20022;-88
2022/03/21 11:45:27;;;;;;;15.93;8.10;;;;;;;8.34;40.67;96122.06;4995615;28;20521;-88
2022/03/21 11:48:18;;;;;;;19.55;9.05;;;;;;;8.20;40.01;96125.75;4980278;28;20046;-88
2022/03/21 11:50:48;;;;;;;15.75;9.10;;;;;;;7.98;40.70;96115.59;4996727;28;20065;-89
2022/03/21 11:53:15;;;;;;;19.77;9.38;;;;;;;7.50;41.28;96117.56;4979895;28;20026;-88
2022/03/21 11:55:41;;;;;;;22.67;9.75;;;;;;;7.85;42.37;96110.44;4982157;28;20037;-88
2022/03/21 11:58:22;;;;;;;18.85;9.45;;;;;;;8.48;39.08;96101.88;4983936;28;20034;-88
2022/03/21 12:01:11;;;;;;;15.07;8.93;;;;;;;8.75;45.67;96095.69;5007863;28;20037;-88
2022/03/21 12:03:37;;;;;;;15.05;8.60;;;;;;;9.01;46.51;96093.91;5003413;28;20091;-88
2022/03/21 12:06:23;;;;;;;19.60;8.63;;;;;;;8.65;41.43;96084.94;5020735;28;20025;-88
2022/03/21 12:08:59;;;;;;;25.58;9.32;;;;;;;8.32;42.67;96082.31;5003039;28;20080;-88
2022/03/21 12:11:48;;;;;;;19.58;9.70;;;;;;;8.32;40.59;96090.16;4986951;28;20029;-89
2022/03/21 12:14:40;;;;;;;16.90;9.18;;;;;;;8.47;44.68;96084.63;5020557;28;20457;-88
2022/03/21 12:17:05;;;;;;;17.63;10.02;;;;;;;8.69;41.57;96078.28;4987812;28;20112;-88
2022/03/21 12:19:57;;;;;;;21.80;10.80;;;;;;;8.41;40.48;96082.03;5002867;28;20132;-88
2022/03/21 12:22:28;;;;;;;24.27;10.55;;;;;;;8.73;42.63;96072.41;5002614;28;20041;-88
2022/03/21 12:25:06;;;;;;;20.20;9.07;;;;;;;9.09;41.78;96070.09;5020386;28;20393;-88
2022/03/21 12:27:42;;;;;;;19.35;9.35;;;;;;;8.74;37.64;96071.41;5002817;28;20029;-88
2022/03/21 12:30:41;;;;;;;17.40;9.07;;;;;;;8.62;38.57;96065.25;5002948;28;20319;-88
2022/03/21 12:33:14;;;;;;;18.08;9.48;;;;;;;8.88;43.07;96059.00;5019523;28;20037;-88
2022/03/21 12:35:42;;;;;;;19.83;10.32;;;;;;;9.22;42.67;96065.78;5002236;28;20045;-88
2022/03/21 12:38:10;;;;;;;23.10;10.10;;;;;;;9.10;39.23;96057.81;5020028;28;20038;-89
2022/03/21 12:40:46;;;;;;;23.45;10.50;;;;;;;8.41;38.82;96058.53;4986588;28;20041;-88
2022/03/21 12:43:19;;;;;;;20.83;11.02;;;;;;;8.85;39.80;96053.44;5019809;28;20114;-88
2022/03/21 12:45:45;;;;;;;21.20;10.25;;;;;;;8.92;39.04;96054.16;5002520;28;20026;-88
2022/03/21 12:48:13;;;;;;;18.90;9.73;;;;;;;8.25;38.34;96047.59;4986324;28;20088;-88
2022/03/21 12:50:39;;;;;;;20.73;10.68;;;;;;;8.67;40.19;96044.50;5002597;28;20044;-88
2022/03/21 12:53:10;;;;;;;19.90;10.23;;;;;;;9.03;43.03;96040.38;5002340;28;20038;-88
2022/03/21 12:55:38;;;;;;;20.65;9.95;;;;;;;8.74;40.65;96039.22;4986021;28;20038;-88
2022/03/21 12:58:06;;;;;;;15.85;9.15;;;;;;;9.18;39.77;96034.81;4986016;28;20033;-89
2022/03/21 13:00:34;;;;;;;20.23;9.80;;;;;;;9.61;43.58;96022.66;5019574;28;20044;-88
2022/03/21 13:03:08;;;;;;;22.05;10.50;;;;;;;9.37;38.74;96026.16;5001630;28;20046;-89
2022/03/21 13:11:28;;;;;;;17.90;9.65;;;;;;;9.31;35.72;96025.22;4984782;28;20045;-88
2022/03/21 13:14:06;;;;;;;17.73;9.23;;;;;;;9.55;39.21;96031.41;5001443;28;20080;-88
2022/03/21 13:16:38;;;;;;;18.50;9.65;;;;;;;9.02;36.87;96025.72;5001735;28;20109;-86
2022/03/21 13:19:06;;;;;;;18.90;9.43;;;;;;;9.17;36.28;96024.56;5001707;28;20088;-86
2022/03/21 13:21:35;;;;;;;25.33;13.05;;;;;;;9.24;42.37;96014.03;5001376;28;20041;-87
2022/03/21 13:24:02;;;;;;;20.65;10.48;;;;;;;9.77;42.38;96015.22;5000884;28;20069;-87
2022/03/21 13:26:28;;;;;;;17.77;9.60;;;;;;;9.45;35.74;96010.19;5001291;28;20032;-87
2022/03/21 13:29:05;;;;;;;17.02;9.05;;;;;;;9.28;36.40;96000.31;4983273;28;20048;-87
2022/03/21 13:31:31;;;;;;;26.05;10.60;;;;;;;8.95;36.41;96003.28;4949737;28;20034;-86
2022/03/21 13:34:05;;;;;;;17.38;9.15;;;;;;;9.16;37.99;96005.44;4965494;28;20134;-87
2022/03/21 13:36:31;;;;;;;18.30;8.90;;;;;;;9.55;35.78;96002.63;4966872;28;20320;-88
2022/03/21 13:39:11;;;;;;;19.23;9.90;;;;;;;9.83;39.82;95993.44;4965899;28;20038;-87
2022/03/21 13:41:59;;;;;;;15.93;8.50;;;;;;;9.90;35.58;95995.94;4981223;28;20042;-88
2022/03/21 13:47:09;;;;;;;15.95;8.82;;;;;;;10.00;35.67;95990.97;4098061;22;20089;-85
2022/03/21 13:49:45;;;;;;;17.50;8.90;;;;;;;9.81;34.44;95987.59;4997739;28;20088;-85
2022/03/21 13:52:13;;;;;;;18.98;9.20;;;;;;;9.31;34.61;95989.41;4963021;28;20026;-85
2022/03/21 13:55:07;;;;;;;14.43;8.35;;;;;;;8.65;34.69;95983.03;4962056;28;20525;-85
2022/03/21 13:57:44;;;;;;;14.93;9.15;;;;;;;8.74;35.42;95984.34;4944156;28;20432;-85
2022/03/21 14:00:11;;;;;;;15.13;9.00;;;;;;;9.08;35.36;95984.03;4961683;28;20094;-85
2022/03/21 14:02:45;;;;;;;16.73;9.55;;;;;;;9.31;35.58;95983.38;4966893;28;20030;-85
2022/03/21 14:05:18;;;;;;;15.07;8.93;;;;;;;9.37;35.96;95979.09;4965209;28;20058;-85
2022/03/21 14:07:47;;;;;;;18.70;9.10;;;;;;;9.67;35.58;95971.28;4964865;28;20034;-85
2022/03/21 14:10:23;;;;;;;19.05;10.30;;;;;;;9.75;35.28;95983.25;4969478;28;20034;-85
2022/03/21 14:12:51;;;;;;;18.73;11.13;;;;;;;9.44;34.26;95977.97;4961354;28;20455;-84
2022/03/21 14:15:25;;;;;;;21.23;10.20;;;;;;;9.72;38.51;95979.25;4961121;28;20037;-85
2022/03/21 14:17:54;;;;;;;30.67;11.77;;;;;;;9.41;35.74;95988.88;4960982;28;20077;-85
2022/03/21 14:20:19;;;;;;;28.20;13.15;;;;;;;9.28;36.99;95979.41;4979291;28;20026;-85
2022/03/21 14:22:49;;;;;;;49.67;27.38;;;;;;;9.51;39.37;95979.72;4980909;28;20076;-85
2022/03/21 14:27:59;;;;;;;17.38;9.65;;;;;;;9.71;36.17;95969.81;4983517;28;20038;-85
2022/03/21 14:30:24;;;;;;;20.73;10.00;;;;;;;9.55;35.10;95967.81;4980328;28;20030;-86
2022/03/21 14:32:50;;;;;;;17.13;9.63;;;;;;;10.03;34.75;95961.69;4998045;28;20038;-86
2022/03/21 14:35:15;;;;;;;23.13;9.00;;;;;;;10.04;36.54;95963.31;4979679;28;20034;-86